createdAt,value
2017-09-29T00:01:52.378Z,11.63
2017-09-29T00:04:21.600Z,8.20
2017-09-29T00:06:57.460Z,7.90
2017-09-29T00:09:26.785Z,8.97
2017-09-29T00:11:55.901Z,8.33
2017-09-29T00:14:25.027Z,5.90
2017-09-29T00:17:00.594Z,7.57
2017-09-29T00:19:29.826Z,6.73
2017-09-29T00:21:58.962Z,8.23
2017-09-29T00:24:28.117Z,7.83
2017-09-29T00:26:57.254Z,9.73
2017-09-29T00:29:26.450Z,12.43
2017-09-29T00:31:55.629Z,7.10
2017-09-29T00:34:24.774Z,8.43
2017-09-29T00:36:54.037Z,9.40
2017-09-29T00:39:23.170Z,7.47
2017-09-29T00:41:52.313Z,7.20
2017-09-29T00:44:21.533Z,7.17
2017-09-29T00:46:50.681Z,8.03
2017-09-29T00:49:19.934Z,7.03
2017-09-29T00:51:49.080Z,9.87
2017-09-29T00:54:18.349Z,6.30
2017-09-29T00:57:00.580Z,6.90
2017-09-29T00:59:36.256Z,12.93
2017-09-29T01:02:05.392Z,8.00
2017-09-29T01:07:16.187Z,10.63
2017-09-29T01:09:45.304Z,9.27
2017-09-29T01:12:15.945Z,12.23
2017-09-29T01:14:45.070Z,9.40
2017-09-29T01:17:22.346Z,8.40
2017-09-29T01:19:52.096Z,10.47
2017-09-29T01:22:21.241Z,10.60
2017-09-29T01:24:50.377Z,7.47
2017-09-29T01:27:19.543Z,10.50
2017-09-29T01:29:49.435Z,9.47
2017-09-29T01:32:18.630Z,10.13
2017-09-29T01:34:47.881Z,9.47
2017-09-29T01:37:17.412Z,8.10
2017-09-29T01:39:46.596Z,11.10
2017-09-29T01:42:15.793Z,7.90
2017-09-29T01:44:45.105Z,11.27
2017-09-29T01:47:14.282Z,7.57
2017-09-29T01:49:43.488Z,8.90
2017-09-29T01:52:12.654Z,6.70
2017-09-29T01:54:54.438Z,7.00
2017-09-29T01:57:23.636Z,10.93
2017-09-29T01:59:52.983Z,7.80
2017-09-29T02:02:22.171Z,8.73
2017-09-29T02:05:10.245Z,10.73
2017-09-29T02:07:39.431Z,11.60
2017-09-29T02:10:08.612Z,8.43
2017-09-29T02:12:44.980Z,9.80
2017-09-29T02:15:19.078Z,7.07
2017-09-29T02:17:48.691Z,9.70
2017-09-29T02:20:17.905Z,7.70
2017-09-29T02:23:02.051Z,6.97
2017-09-29T02:25:31.329Z,8.37
2017-09-29T02:28:07.474Z,7.00
2017-09-29T02:30:36.607Z,9.43
2017-09-29T02:33:18.706Z,12.23
2017-09-29T02:35:47.909Z,9.53
2017-09-29T02:38:17.249Z,10.40
2017-09-29T02:40:47.688Z,10.47
2017-09-29T02:43:17.056Z,6.87
2017-09-29T02:45:46.324Z,20.80
2017-09-29T02:48:15.659Z,17.80
2017-09-29T02:50:44.894Z,12.53
2017-09-29T02:53:14.861Z,9.90
2017-09-29T02:55:44.144Z,22.90
2017-09-29T02:58:13.737Z,9.33
2017-09-29T03:00:43.200Z,29.63
2017-09-29T03:03:14.830Z,16.00
2017-09-29T03:05:44.570Z,7.20
2017-09-29T03:08:13.706Z,10.67
2017-09-29T03:10:43.050Z,14.17
2017-09-29T03:13:12.329Z,9.90
2017-09-29T03:15:41.638Z,14.03
2017-09-29T03:18:10.882Z,9.43
2017-09-29T03:20:40.087Z,13.13
2017-09-29T03:23:09.273Z,10.90
2017-09-29T03:25:38.518Z,17.70
2017-09-29T03:28:13.870Z,14.47
2017-09-29T03:30:43.271Z,21.20
2017-09-29T03:33:12.420Z,10.83
2017-09-29T03:35:56.038Z,8.57
2017-09-29T03:38:25.184Z,11.83
2017-09-29T03:40:54.369Z,8.73
2017-09-29T03:43:26.621Z,13.10
2017-09-29T03:45:55.793Z,16.53
2017-09-29T03:48:24.914Z,9.60
2017-09-29T03:50:54.740Z,12.73
2017-09-29T03:53:24.241Z,8.47
2017-09-29T03:55:55.411Z,14.50
2017-09-29T03:58:32.329Z,34.30
2017-09-29T04:01:14.320Z,10.47
2017-09-29T04:03:43.462Z,12.03
2017-09-29T04:06:12.618Z,9.37
2017-09-29T04:08:41.777Z,53.43
2017-09-29T04:11:10.930Z,31.13
2017-09-29T04:13:40.160Z,93.50
2017-09-29T04:16:09.349Z,111.50
2017-09-29T04:18:39.062Z,133.23
2017-09-29T04:21:08.189Z,137.63
2017-09-29T04:23:37.316Z,111.20
2017-09-29T04:26:06.441Z,183.10
2017-09-29T04:28:35.628Z,290.00
2017-09-29T04:31:04.755Z,289.17
2017-09-29T04:33:33.883Z,288.47
2017-09-29T04:36:11.173Z,317.13
2017-09-29T04:38:53.485Z,240.50
2017-09-29T04:41:22.604Z,249.67
2017-09-29T04:43:51.747Z,233.33
2017-09-29T04:46:20.866Z,175.53
2017-09-29T04:48:50.734Z,142.07
2017-09-29T04:51:27.158Z,134.90
2017-09-29T04:53:56.360Z,170.87
2017-09-29T04:56:25.492Z,179.47
2017-09-29T04:58:54.617Z,165.93
2017-09-29T05:01:29.766Z,118.97
2017-09-29T05:03:58.915Z,211.23
2017-09-29T05:06:28.920Z,127.40
2017-09-29T05:08:58.062Z,180.33
2017-09-29T05:11:27.226Z,271.27
2017-09-29T05:13:56.319Z,176.07
2017-09-29T05:16:25.464Z,223.60
2017-09-29T05:18:54.605Z,272.97
2017-09-29T05:21:23.821Z,155.40
2017-09-29T05:23:52.940Z,247.00
2017-09-29T05:26:22.114Z,150.87
2017-09-29T05:28:51.260Z,123.20
2017-09-29T05:31:20.676Z,134.90
2017-09-29T05:33:49.833Z,151.40
2017-09-29T05:36:20.834Z,204.80
2017-09-29T05:38:51.099Z,194.97
2017-09-29T05:41:20.218Z,244.07
2017-09-29T05:43:49.667Z,142.27
2017-09-29T05:46:18.826Z,139.80
2017-09-29T05:48:47.982Z,170.13
2017-09-29T05:51:17.113Z,142.83
2017-09-29T05:53:46.403Z,140.77
2017-09-29T05:56:15.804Z,156.83
2017-09-29T05:58:44.968Z,341.70
2017-09-29T06:01:17.164Z,293.73
2017-09-29T06:03:46.316Z,146.27
2017-09-29T06:06:15.465Z,178.43
2017-09-29T06:08:46.173Z,101.27
2017-09-29T06:11:15.942Z,353.00
2017-09-29T06:13:45.830Z,235.63
2017-09-29T06:16:14.988Z,178.60
2017-09-29T06:18:44.158Z,171.43
2017-09-29T06:21:13.397Z,245.47
2017-09-29T06:23:42.746Z,325.87
2017-09-29T06:26:11.857Z,333.33
2017-09-29T06:28:41.029Z,463.93
2017-09-29T06:31:10.172Z,470.03
2017-09-29T06:33:39.293Z,331.40
2017-09-29T06:36:08.621Z,240.57
2017-09-29T06:38:37.847Z,139.73
2017-09-29T06:41:07.561Z,165.63
2017-09-29T06:43:36.863Z,148.13
2017-09-29T06:46:06.013Z,150.17
2017-09-29T06:48:35.174Z,231.37
2017-09-29T06:51:05.413Z,173.60
2017-09-29T06:53:35.116Z,262.30
2017-09-29T06:56:04.493Z,172.00
2017-09-29T06:58:33.651Z,267.40
2017-09-29T07:01:02.789Z,213.47
2017-09-29T07:03:31.902Z,133.93
2017-09-29T07:06:08.144Z,156.33
2017-09-29T07:08:37.281Z,181.17
2017-09-29T07:11:06.386Z,139.60
2017-09-29T07:13:35.541Z,235.40
2017-09-29T07:16:06.457Z,214.70
2017-09-29T07:18:35.814Z,205.87
2017-09-29T07:21:04.958Z,247.70
2017-09-29T07:23:47.678Z,218.23
2017-09-29T07:26:19.654Z,150.23
2017-09-29T07:28:49.061Z,239.57
2017-09-29T07:31:18.609Z,120.23
2017-09-29T07:33:47.963Z,104.03
2017-09-29T07:36:17.299Z,50.27
2017-09-29T07:38:46.897Z,9.47
2017-09-29T07:41:16.049Z,18.30
2017-09-29T07:43:45.190Z,16.80
2017-09-29T07:46:14.321Z,12.50
2017-09-29T07:48:43.476Z,25.33
2017-09-29T07:51:12.644Z,17.83
2017-09-29T07:53:41.750Z,24.50
2017-09-29T07:56:22.961Z,10.83
2017-09-29T07:58:53.494Z,12.00
2017-09-29T08:01:22.696Z,8.80
2017-09-29T08:03:51.846Z,11.43
2017-09-29T08:06:29.017Z,6.37
2017-09-29T08:08:58.150Z,10.60
2017-09-29T08:11:28.302Z,8.30
2017-09-29T08:13:58.146Z,11.97
2017-09-29T08:16:27.291Z,10.90
2017-09-29T08:19:03.018Z,12.57
2017-09-29T08:21:32.186Z,9.47
2017-09-29T08:24:02.649Z,10.10
2017-09-29T08:26:31.770Z,9.30
2017-09-29T08:29:00.870Z,10.70
2017-09-29T08:31:36.375Z,7.67
2017-09-29T08:34:05.913Z,16.83
2017-09-29T08:36:35.060Z,9.03
2017-09-29T08:39:04.251Z,7.13
2017-09-29T08:41:33.560Z,10.07
2017-09-29T08:44:03.049Z,13.43
2017-09-29T08:46:32.130Z,8.23
2017-09-29T08:49:16.110Z,8.07
2017-09-29T08:51:45.494Z,8.43
2017-09-29T08:54:14.801Z,6.27
2017-09-29T08:56:44.037Z,6.10
2017-09-29T08:59:13.414Z,4.93
2017-09-29T09:01:43.168Z,13.07
2017-09-29T09:04:12.276Z,7.80
2017-09-29T09:06:41.519Z,7.03
2017-09-29T09:09:17.250Z,9.00
2017-09-29T09:11:46.372Z,9.43
2017-09-29T09:14:15.504Z,11.73
2017-09-29T09:16:48.217Z,9.20
2017-09-29T09:19:23.431Z,8.93
2017-09-29T09:21:58.577Z,10.17
2017-09-29T09:24:29.246Z,8.23
2017-09-29T09:26:58.381Z,7.47
2017-09-29T09:29:27.560Z,6.40
2017-09-29T09:32:02.725Z,9.20
2017-09-29T09:34:39.342Z,10.57
2017-09-29T09:37:08.870Z,5.70
2017-09-29T09:39:38.682Z,20.60
2017-09-29T09:42:07.820Z,5.37
2017-09-29T09:44:36.895Z,7.33
2017-09-29T09:47:12.174Z,7.60
2017-09-29T09:49:41.269Z,11.77
2017-09-29T09:52:10.403Z,9.50
2017-09-29T09:54:53.075Z,5.00
2017-09-29T09:57:22.165Z,11.27
2017-09-29T09:59:51.265Z,9.60
2017-09-29T10:02:20.613Z,8.40
2017-09-29T10:04:49.962Z,6.77
2017-09-29T10:07:20.793Z,5.80
2017-09-29T10:09:49.978Z,8.30
2017-09-29T10:12:19.147Z,8.87
2017-09-29T10:14:48.313Z,12.40
2017-09-29T10:17:32.550Z,8.70
2017-09-29T10:20:09.474Z,4.80
2017-09-29T10:22:38.609Z,6.10
2017-09-29T10:25:07.790Z,7.23
2017-09-29T10:27:36.898Z,10.20
2017-09-29T10:30:06.772Z,8.07
2017-09-29T10:32:35.966Z,9.10
2017-09-29T10:35:18.870Z,8.77
2017-09-29T10:37:48.039Z,8.27
2017-09-29T10:40:30.665Z,6.00
2017-09-29T10:42:59.798Z,8.40
2017-09-29T10:45:29.158Z,8.57
2017-09-29T10:47:58.369Z,10.97
2017-09-29T10:50:27.529Z,8.60
2017-09-29T10:52:56.662Z,6.33
2017-09-29T10:55:25.757Z,7.43
2017-09-29T10:57:54.924Z,6.80
2017-09-29T11:00:24.090Z,13.03
2017-09-29T11:02:53.605Z,12.40
2017-09-29T11:05:22.837Z,15.73
2017-09-29T11:07:51.977Z,15.80
2017-09-29T11:10:34.209Z,14.07
2017-09-29T11:13:03.542Z,9.17
2017-09-29T11:15:36.393Z,11.67
2017-09-29T11:18:05.525Z,14.80
2017-09-29T11:20:34.702Z,9.70
2017-09-29T11:23:03.834Z,7.83
2017-09-29T11:25:32.948Z,5.83
2017-09-29T11:28:09.883Z,6.70
2017-09-29T11:30:39.319Z,8.43
2017-09-29T11:33:08.701Z,14.77
2017-09-29T11:35:37.821Z,14.00
2017-09-29T11:38:06.925Z,8.17
2017-09-29T11:40:36.061Z,7.80
2017-09-29T11:43:05.407Z,8.40
2017-09-29T11:45:34.776Z,14.73
2017-09-29T11:48:03.937Z,7.17
2017-09-29T11:50:33.104Z,12.70
2017-09-29T11:53:02.207Z,8.07
2017-09-29T11:55:36.402Z,12.43
2017-09-29T11:58:20.628Z,6.70
2017-09-29T12:00:49.762Z,9.03
2017-09-29T12:03:25.932Z,10.80
2017-09-29T12:05:55.454Z,10.63
2017-09-29T12:08:24.615Z,9.20
2017-09-29T12:10:53.707Z,9.13
2017-09-29T12:13:26.318Z,14.30
2017-09-29T12:15:55.643Z,8.20
2017-09-29T12:18:30.919Z,8.80
2017-09-29T12:21:00.062Z,14.33
2017-09-29T12:23:29.183Z,12.53
2017-09-29T12:25:58.275Z,10.23
2017-09-29T12:28:27.435Z,17.63
2017-09-29T12:30:58.147Z,13.80
2017-09-29T12:33:27.822Z,19.77
2017-09-29T12:35:56.978Z,8.50
2017-09-29T12:38:32.476Z,9.77
2017-09-29T12:41:01.624Z,11.37
2017-09-29T12:43:44.046Z,9.63
2017-09-29T12:46:26.741Z,9.33
2017-09-29T12:48:55.848Z,10.17
2017-09-29T12:51:24.975Z,8.90
2017-09-29T12:54:08.081Z,8.90
2017-09-29T12:56:50.533Z,6.50
2017-09-29T12:59:20.534Z,9.63
2017-09-29T13:01:50.034Z,12.33
2017-09-29T13:04:19.191Z,11.37
2017-09-29T13:06:48.319Z,10.33
2017-09-29T13:09:17.593Z,10.67
2017-09-29T13:11:47.133Z,12.23
2017-09-29T13:14:16.244Z,9.20
2017-09-29T13:16:46.245Z,14.93
2017-09-29T13:19:15.383Z,8.07
2017-09-29T13:21:44.512Z,9.37
2017-09-29T13:24:14.533Z,9.40
2017-09-29T13:26:43.875Z,7.17
2017-09-29T13:29:13.410Z,13.60
2017-09-29T13:31:42.710Z,12.53
2017-09-29T13:34:15.220Z,7.37
2017-09-29T13:36:44.620Z,6.50
2017-09-29T13:39:14.097Z,11.60
2017-09-29T13:41:43.209Z,8.70
2017-09-29T13:44:19.094Z,6.43
2017-09-29T13:46:54.337Z,13.00
2017-09-29T13:49:40.689Z,5.37
2017-09-29T13:52:10.175Z,14.90
2017-09-29T13:54:39.663Z,9.43
2017-09-29T13:57:16.296Z,4.43
2017-09-29T13:59:45.470Z,7.53
2017-09-29T14:02:14.642Z,10.02
2017-09-29T14:48:25.611Z,3.83
2017-09-29T14:50:55.317Z,5.32
2017-09-29T14:53:24.512Z,9.27
2017-09-29T14:55:53.630Z,6.93
2017-09-29T14:58:22.944Z,10.93
2017-09-29T15:00:59.091Z,3.50
2017-09-29T15:03:29.583Z,5.50
2017-09-29T15:05:59.473Z,2.90
2017-09-29T15:08:28.847Z,4.95
2017-09-29T15:11:04.025Z,3.83
2017-09-29T15:13:33.373Z,9.95
2017-09-29T15:16:10.300Z,4.12
2017-09-29T15:18:40.326Z,9.65
2017-09-29T15:21:10.285Z,4.95
2017-09-29T15:23:47.214Z,4.62
2017-09-29T15:26:22.754Z,3.85
2017-09-29T15:28:53.076Z,3.35
2017-09-29T15:31:22.438Z,8.38
2017-09-29T15:33:51.580Z,4.75
2017-09-29T15:36:20.673Z,5.30
2017-09-29T15:38:50.034Z,3.42
2017-09-29T15:41:19.894Z,3.90
2017-09-29T15:43:49.198Z,7.57
2017-09-29T15:46:18.378Z,3.78
2017-09-29T15:48:47.532Z,10.55
2017-09-29T15:51:20.641Z,7.72
2017-09-29T15:53:49.766Z,8.75
2017-09-29T15:56:18.895Z,4.30
2017-09-29T15:58:48.203Z,8.05
2017-09-29T16:01:33.286Z,5.95
2017-09-29T16:04:08.534Z,6.07
2017-09-29T16:06:37.684Z,10.20
2017-09-29T16:09:07.132Z,4.80
2017-09-29T16:11:37.350Z,11.50
2017-09-29T16:14:06.631Z,5.20
2017-09-29T16:16:43.490Z,6.50
2017-09-29T16:19:12.643Z,9.17
2017-09-29T16:21:41.865Z,10.73
2017-09-29T16:24:11.503Z,9.17
2017-09-29T16:26:40.675Z,6.20
2017-09-29T16:29:16.651Z,17.80
2017-09-29T16:31:46.274Z,11.67
2017-09-29T16:34:21.621Z,5.90
2017-09-29T16:36:50.811Z,7.13
2017-09-29T16:39:20.244Z,7.03
2017-09-29T16:41:49.412Z,16.50
2017-09-29T16:44:18.997Z,7.27
2017-09-29T16:46:48.132Z,9.83
2017-09-29T16:49:17.243Z,14.23
2017-09-29T16:51:46.609Z,8.60
2017-09-29T16:54:23.334Z,21.77
2017-09-29T16:56:53.333Z,8.80
2017-09-29T16:59:22.504Z,8.10
2017-09-29T17:01:51.621Z,8.30
2017-09-29T17:04:35.552Z,6.87
2017-09-29T17:07:04.678Z,8.97
2017-09-29T17:09:33.818Z,6.63
2017-09-29T17:12:02.930Z,6.87
2017-09-29T17:14:33.134Z,8.27
2017-09-29T17:17:02.256Z,6.90
2017-09-29T17:19:31.481Z,13.73
2017-09-29T17:22:00.579Z,10.17
2017-09-29T17:24:29.673Z,5.97
2017-09-29T17:26:59.422Z,10.17
2017-09-29T17:29:42.288Z,5.93
2017-09-29T17:32:11.435Z,12.73
2017-09-29T17:34:40.527Z,16.00
2017-09-29T17:37:10.666Z,11.77
2017-09-29T17:39:40.553Z,10.40
2017-09-29T17:42:21.801Z,11.63
2017-09-29T17:44:51.198Z,8.93
2017-09-29T17:47:20.373Z,14.70
2017-09-29T17:49:49.607Z,8.30
2017-09-29T17:52:18.727Z,9.90
2017-09-29T17:54:47.853Z,13.80
2017-09-29T17:57:16.966Z,13.80
2017-09-29T17:59:46.201Z,9.33
2017-09-29T18:02:29.640Z,20.10
2017-09-29T18:04:58.793Z,14.53
2017-09-29T18:07:27.917Z,14.83
2017-09-29T18:09:58.042Z,15.53
2017-09-29T18:12:27.318Z,11.90
2017-09-29T18:14:56.451Z,11.27
2017-09-29T18:17:31.723Z,13.40
2017-09-29T18:20:00.861Z,19.40
2017-09-29T18:22:29.971Z,24.03
2017-09-29T18:24:59.081Z,21.80
2017-09-29T18:27:28.662Z,15.50
2017-09-29T18:29:57.805Z,19.53
2017-09-29T18:32:26.942Z,16.33
2017-09-29T18:34:57.739Z,9.87
2017-09-29T18:37:27.073Z,11.83
2017-09-29T18:39:56.232Z,32.57
2017-09-29T18:42:25.363Z,13.60
2017-09-29T18:44:55.502Z,10.20
2017-09-29T18:47:25.787Z,27.17
2017-09-29T18:50:01.155Z,14.20
2017-09-29T18:52:30.430Z,18.77
2017-09-29T18:54:59.582Z,15.80
2017-09-29T18:57:28.703Z,8.20
2017-09-29T18:59:58.179Z,14.03
2017-09-29T19:02:27.513Z,11.73
2017-09-29T19:04:58.126Z,15.10
2017-09-29T19:07:27.456Z,13.43
2017-09-29T19:10:04.995Z,11.60
2017-09-29T19:12:40.265Z,11.27
2017-09-29T19:15:09.413Z,12.17
2017-09-29T19:17:46.037Z,11.57
2017-09-29T19:20:34.409Z,9.10
2017-09-29T19:23:03.546Z,12.03
2017-09-29T19:25:32.627Z,13.00
2017-09-29T19:28:02.052Z,12.77
2017-09-29T19:30:31.219Z,13.57
2017-09-29T19:33:00.844Z,18.23
2017-09-29T19:35:29.957Z,13.20
2017-09-29T19:37:59.042Z,15.90
2017-09-29T19:40:28.174Z,12.73
2017-09-29T19:42:57.449Z,11.97
2017-09-29T19:45:26.569Z,15.50
2017-09-29T19:48:07.943Z,10.87
2017-09-29T19:50:37.074Z,10.10
2017-09-29T19:53:06.288Z,15.10
2017-09-29T19:55:35.620Z,20.37
2017-09-29T19:58:04.751Z,14.50
2017-09-29T20:00:34.220Z,17.33
2017-09-29T20:03:03.786Z,16.73
2017-09-29T20:05:32.929Z,12.70
2017-09-29T20:08:02.089Z,15.70
2017-09-29T20:10:31.850Z,16.00
2017-09-29T20:13:08.313Z,19.90
2017-09-29T20:15:37.700Z,14.50
2017-09-29T20:18:06.974Z,10.23
2017-09-29T20:20:36.578Z,9.13
2017-09-29T20:23:05.847Z,19.03
2017-09-29T20:25:41.112Z,20.33
2017-09-29T20:28:10.431Z,12.60
2017-09-29T20:30:39.610Z,12.83
2017-09-29T20:33:08.694Z,12.70
2017-09-29T20:35:45.700Z,8.63
2017-09-29T20:38:14.807Z,12.13
2017-09-29T20:40:45.212Z,8.57
2017-09-29T20:43:27.213Z,10.60
2017-09-29T20:45:56.494Z,8.60
2017-09-29T20:48:25.649Z,13.13
2017-09-29T20:50:54.876Z,9.20
2017-09-29T20:53:24.391Z,19.97
2017-09-29T20:56:00.630Z,10.93
2017-09-29T20:58:30.409Z,14.07
2017-09-29T21:00:59.549Z,8.97
2017-09-29T21:03:28.868Z,11.13
2017-09-29T21:05:58.212Z,14.80
2017-09-29T21:08:28.610Z,12.03
2017-09-29T21:11:04.662Z,10.80
2017-09-29T21:13:34.283Z,10.57
2017-09-29T21:16:03.523Z,8.70
2017-09-29T21:18:32.637Z,17.67
2017-09-29T21:21:07.973Z,9.17
2017-09-29T21:23:37.473Z,10.60
2017-09-29T21:26:06.606Z,11.77
2017-09-29T21:28:35.784Z,10.83
2017-09-29T21:31:04.958Z,20.10
2017-09-29T21:33:34.254Z,17.07
2017-09-29T21:36:03.527Z,10.13
2017-09-29T21:38:32.721Z,9.50
2017-09-29T21:41:07.974Z,12.30
2017-09-29T21:43:37.319Z,18.90
2017-09-29T21:46:06.585Z,10.83
2017-09-29T21:48:35.735Z,11.87
2017-09-29T21:51:05.182Z,10.27
2017-09-29T21:53:34.606Z,13.80
2017-09-29T21:56:03.741Z,14.07
2017-09-29T21:58:33.081Z,16.30
2017-09-29T22:01:02.322Z,13.67
2017-09-29T22:03:31.665Z,9.50
2017-09-29T22:06:00.934Z,8.60
2017-09-29T22:08:38.750Z,11.67
2017-09-29T22:11:07.930Z,8.83
2017-09-29T22:13:38.150Z,14.37
2017-09-29T22:16:07.325Z,19.00
2017-09-29T22:18:37.398Z,17.63
2017-09-29T22:21:06.612Z,9.87
2017-09-29T22:23:35.754Z,13.00
2017-09-29T22:26:10.900Z,10.10
2017-09-29T22:28:40.394Z,9.93
2017-09-29T22:31:09.533Z,8.63
2017-09-29T22:33:38.638Z,11.40
2017-09-29T22:36:07.799Z,11.80
2017-09-29T22:38:37.301Z,7.93
2017-09-29T22:41:06.443Z,12.17
2017-09-29T22:43:35.647Z,10.10
2017-09-29T22:46:04.822Z,9.47
2017-09-29T22:48:34.100Z,8.23
2017-09-29T22:51:03.289Z,12.77
2017-09-29T22:53:40.142Z,9.23
2017-09-29T22:56:09.275Z,8.40
2017-09-29T22:58:38.480Z,9.93
2017-09-29T23:01:07.582Z,7.67
2017-09-29T23:03:36.722Z,13.90
2017-09-29T23:06:05.879Z,11.37
2017-09-29T23:08:35.086Z,9.73
2017-09-29T23:11:04.200Z,8.30
2017-09-29T23:13:33.373Z,17.07
2017-09-29T23:16:02.932Z,13.23
2017-09-29T23:18:32.055Z,7.40
2017-09-29T23:21:03.091Z,11.10
2017-09-29T23:23:32.349Z,8.30
2017-09-29T23:26:01.494Z,13.00
2017-09-29T23:28:31.014Z,7.70
2017-09-29T23:31:06.156Z,10.30
2017-09-29T23:33:35.314Z,8.67
2017-09-29T23:36:04.475Z,8.80
2017-09-29T23:38:33.618Z,9.00
2017-09-29T23:41:02.718Z,12.60
2017-09-29T23:43:31.925Z,9.93
2017-09-29T23:46:01.063Z,9.07
2017-09-29T23:48:30.169Z,8.00
2017-09-29T23:50:59.290Z,9.10
2017-09-29T23:53:29.262Z,11.00
2017-09-29T23:55:58.367Z,10.93
2017-09-29T23:58:27.543Z,9.53
